Time;durP1;ratioP1;P1;durP2;ratioP2;P2;SDS_P1;SDS_P2;PMS_P1;PMS_P2;Temp;Humidity;BMP_temperature;BMP_pressure;BME280_temperature;BME280_humidity;BME280_pressure;Samples;Min_cycle;Max_cycle;Signal;HPM_P1;HPM_P2
2021/08/20 00:00:58;;;;;;;6.32;3.80;;;14.60;99.90;;;;;;5011663;28;20026;-77
2021/08/20 00:03:24;;;;;;;7.57;3.95;;;14.70;99.90;;;;;;5010807;28;20034;-77
2021/08/20 00:05:50;;;;;;;4.45;3.70;;;14.70;99.90;;;;;;5011938;28;20014;-77
2021/08/20 00:08:15;;;;;;;6.20;3.90;;;14.70;99.90;;;;;;5013402;28;20081;-81
2021/08/20 00:10:41;;;;;;;4.78;3.88;;;14.70;99.90;;;;;;5010935;28;20029;-77
2021/08/20 00:13:07;;;;;;;9.90;3.67;;;14.70;99.90;;;;;;5012589;28;20025;-81
2021/08/20 00:15:33;;;;;;;6.05;4.00;;;14.70;99.90;;;;;;5011958;28;20035;-77
2021/08/20 00:17:59;;;;;;;6.60;4.10;;;14.70;99.90;;;;;;5010441;28;20036;-81
2021/08/20 00:20:25;;;;;;;4.45;3.70;;;14.60;99.90;;;;;;5012691;28;20033;-81
2021/08/20 00:22:51;;;;;;;8.88;4.20;;;14.60;99.90;;;;;;5032064;28;20104;-77
2021/08/20 00:25:17;;;;;;;6.63;4.38;;;14.60;99.90;;;;;;5030437;28;20033;-81
2021/08/20 00:27:43;;;;;;;11.68;4.45;;;14.60;99.90;;;;;;5031033;28;20052;-81
2021/08/20 00:30:09;;;;;;;8.27;4.32;;;14.60;99.90;;;;;;5032040;28;20159;-77
2021/08/20 00:32:38;;;;;;;8.88;4.32;;;14.60;99.90;;;;;;5031914;28;20029;-77
2021/08/20 00:35:04;;;;;;;8.40;4.65;;;14.60;99.90;;;;;;5031796;28;20029;-77
2021/08/20 00:37:30;;;;;;;8.32;4.60;;;14.60;99.90;;;;;;5031200;28;20026;-77
2021/08/20 00:39:57;;;;;;;8.10;4.45;;;14.60;99.90;;;;;;5031769;28;20021;-77
2021/08/20 00:42:23;;;;;;;7.50;4.40;;;14.60;99.90;;;;;;5030467;28;20026;-81
2021/08/20 00:44:49;;;;;;;6.80;4.65;;;14.60;99.90;;;;;;5029825;28;20021;-77
2021/08/20 00:47:16;;;;;;;9.35;4.70;;;14.60;99.90;;;;;;5030083;28;20029;-80
2021/08/20 00:49:42;;;;;;;6.53;4.75;;;14.60;99.90;;;;;;5027793;28;20057;-77
2021/08/20 00:52:09;;;;;;;7.22;4.25;;;14.60;99.90;;;;;;5025730;28;20574;-77
2021/08/20 00:54:34;;;;;;;9.38;4.82;;;14.60;99.90;;;;;;5031622;28;20384;-77
2021/08/20 00:57:03;;;;;;;7.97;4.78;;;14.50;99.90;;;;;;5031753;28;20024;-77
2021/08/20 00:59:29;;;;;;;9.40;5.60;;;14.50;99.90;;;;;;5031600;28;20030;-77
2021/08/20 01:01:54;;;;;;;8.02;5.18;;;14.40;99.90;;;;;;5030152;28;20021;-81
2021/08/20 01:04:20;;;;;;;8.15;5.50;;;14.40;99.90;;;;;;5030504;28;20594;-81
2021/08/20 01:06:46;;;;;;;7.22;4.78;;;14.40;99.90;;;;;;5029056;28;20021;-77
2021/08/20 01:09:12;;;;;;;14.85;5.88;;;14.30;99.90;;;;;;5028471;28;20033;-77
2021/08/20 01:11:37;;;;;;;10.18;5.82;;;14.30;99.90;;;;;;5029338;28;20546;-77
2021/08/20 01:14:05;;;;;;;9.10;5.68;;;14.30;99.90;;;;;;5029591;28;20033;-77
2021/08/20 01:16:32;;;;;;;8.48;5.72;;;14.20;99.90;;;;;;5030943;28;20400;-81
2021/08/20 01:18:58;;;;;;;14.27;5.90;;;14.20;99.90;;;;;;5031629;28;20063;-77
2021/08/20 01:21:24;;;;;;;6.85;5.43;;;14.20;99.90;;;;;;5028595;28;20049;-81
2021/08/20 01:23:55;;;;;;;8.98;6.22;;;14.20;99.90;;;;;;5029773;28;20030;-77
2021/08/20 01:26:22;;;;;;;12.77;5.85;;;14.10;99.90;;;;;;5029638;28;20093;-81
2021/08/20 01:28:48;;;;;;;9.73;6.00;;;14.10;99.90;;;;;;5010237;28;20044;-77
2021/08/20 01:31:17;;;;;;;8.25;6.07;;;14.10;99.90;;;;;;5010538;28;20025;-77
2021/08/20 01:33:43;;;;;;;10.65;7.00;;;14.10;99.90;;;;;;5010454;28;20034;-81
2021/08/20 01:36:09;;;;;;;8.05;6.30;;;14.10;99.90;;;;;;5010567;28;20026;-77
2021/08/20 01:38:50;;;;;;;14.75;7.20;;;14.00;99.90;;;;;;5010739;28;20088;-81
2021/08/20 01:41:19;;;;;;;10.80;6.47;;;13.90;99.90;;;;;;5011543;28;20033;-81
2021/08/20 01:43:45;;;;;;;12.90;7.07;;;13.90;99.90;;;;;;5015522;28;20025;-78
2021/08/20 01:46:11;;;;;;;13.45;6.82;;;13.90;99.90;;;;;;5030827;28;20040;-77
2021/08/20 01:48:44;;;;;;;15.38;7.10;;;13.90;99.90;;;;;;5028939;28;20136;-81
2021/08/20 01:51:12;;;;;;;13.05;7.80;;;13.90;99.90;;;;;;5025544;28;20366;-81
2021/08/20 01:53:40;;;;;;;10.32;7.55;;;13.80;99.90;;;;;;5034451;28;20428;-77
2021/08/20 01:56:11;;;;;;;13.95;7.68;;;13.80;99.90;;;;;;5034775;28;20036;-77
2021/08/20 01:58:36;;;;;;;13.15;7.22;;;13.70;99.90;;;;;;5033086;28;20041;-81
2021/08/20 02:01:02;;;;;;;9.35;7.57;;;13.70;99.90;;;;;;5034082;28;20030;-77
2021/08/20 02:03:27;;;;;;;11.90;7.82;;;13.60;99.90;;;;;;5034589;28;20425;-81
2021/08/20 02:05:56;;;;;;;12.13;7.55;;;13.60;99.90;;;;;;5031836;28;20032;-77
2021/08/20 02:08:21;;;;;;;17.20;7.97;;;13.60;99.90;;;;;;5033070;28;20817;-77
2021/08/20 02:10:47;;;;;;;12.38;7.55;;;13.60;99.90;;;;;;5033936;28;20029;-77
2021/08/20 02:13:13;;;;;;;12.68;8.10;;;13.60;99.90;;;;;;5032871;28;20033;-77
2021/08/20 02:15:38;;;;;;;12.95;8.18;;;13.60;99.90;;;;;;5032500;28;20026;-77
2021/08/20 02:18:04;;;;;;;13.13;8.00;;;13.60;99.90;;;;;;5033782;28;20060;-77
2021/08/20 02:20:30;;;;;;;19.70;8.65;;;13.60;99.90;;;;;;5031694;28;20028;-77
2021/08/20 02:22:55;;;;;;;16.95;8.30;;;13.60;99.90;;;;;;5034107;28;20029;-77
2021/08/20 02:25:21;;;;;;;13.40;8.10;;;13.60;99.90;;;;;;5034252;28;20026;-81
2021/08/20 02:27:46;;;;;;;17.75;8.80;;;13.60;99.90;;;;;;5020959;28;20041;-77
2021/08/20 02:30:12;;;;;;;12.10;8.23;;;13.50;99.90;;;;;;5013299;28;20041;-77
2021/08/20 02:32:38;;;;;;;14.65;8.68;;;13.50;99.90;;;;;;5014959;28;20033;-77
2021/08/20 02:35:04;;;;;;;17.30;8.38;;;13.50;99.90;;;;;;5013054;28;20037;-77
2021/08/20 02:37:29;;;;;;;15.23;9.10;;;13.50;99.90;;;;;;5011911;28;20038;-77
2021/08/20 02:39:55;;;;;;;15.50;9.02;;;13.50;99.90;;;;;;5012898;28;20458;-81
2021/08/20 02:42:21;;;;;;;15.77;9.55;;;13.40;99.90;;;;;;5012700;28;20030;-82
2021/08/20 02:44:46;;;;;;;16.17;9.52;;;13.40;99.90;;;;;;5025837;28;20030;-77
2021/08/20 02:47:12;;;;;;;16.77;10.25;;;13.40;99.90;;;;;;5032767;28;20551;-77
2021/08/20 02:49:37;;;;;;;17.95;10.07;;;13.30;99.90;;;;;;5032095;28;20179;-77
2021/08/20 02:52:03;;;;;;;15.18;9.52;;;13.30;99.90;;;;;;5031110;28;20108;-77
2021/08/20 02:54:29;;;;;;;16.38;9.93;;;13.30;99.90;;;;;;5033580;28;20497;-81
2021/08/20 02:56:57;;;;;;;16.83;9.65;;;13.20;99.90;;;;;;5033872;28;20026;-77
2021/08/20 02:59:23;;;;;;;15.38;10.07;;;13.20;99.90;;;;;;5032243;28;20057;-77
2021/08/20 03:01:49;;;;;;;15.95;10.05;;;13.20;99.90;;;;;;5032085;28;20025;-81
2021/08/20 03:04:16;;;;;;;15.57;9.07;;;13.20;99.90;;;;;;5033588;28;20037;-77
2021/08/20 03:06:43;;;;;;;17.02;10.40;;;13.10;99.90;;;;;;5030169;28;20040;-77
2021/08/20 03:09:10;;;;;;;17.08;9.88;;;13.10;99.90;;;;;;5033221;28;20026;-77
2021/08/20 03:11:36;;;;;;;17.67;9.50;;;13.10;99.90;;;;;;5033521;28;20447;-82
2021/08/20 03:14:02;;;;;;;17.58;9.52;;;13.00;99.90;;;;;;5031133;28;20036;-77
2021/08/20 03:16:28;;;;;;;17.35;9.88;;;13.00;99.90;;;;;;5032334;28;20017;-77
2021/08/20 03:18:53;;;;;;;16.92;10.70;;;12.90;99.90;;;;;;5031641;28;20036;-78
2021/08/20 03:21:19;;;;;;;22.48;10.52;;;12.90;99.90;;;;;;5030564;28;20112;-77
2021/08/20 03:23:45;;;;;;;16.40;10.90;;;12.90;99.90;;;;;;5031939;28;20029;-81
2021/08/20 03:26:11;;;;;;;17.75;10.70;;;12.90;99.90;;;;;;5033085;28;20033;-77
2021/08/20 03:28:36;;;;;;;17.60;10.85;;;12.80;99.90;;;;;;5032927;28;20033;-77
2021/08/20 03:31:02;;;;;;;18.35;10.85;;;12.80;99.90;;;;;;5032999;28;20503;-77
2021/08/20 03:33:28;;;;;;;18.83;9.40;;;12.80;99.90;;;;;;5033058;28;20100;-81
2021/08/20 03:35:57;;;;;;;19.75;10.60;;;12.70;99.90;;;;;;5031338;28;20082;-82
2021/08/20 03:38:22;;;;;;;15.30;10.32;;;12.60;99.90;;;;;;5031315;28;20029;-77
2021/08/20 03:40:49;;;;;;;21.70;11.05;;;12.70;99.90;;;;;;5032327;28;20036;-77
2021/08/20 03:43:15;;;;;;;17.23;10.38;;;12.60;99.90;;;;;;5031384;28;20041;-77
2021/08/20 03:45:40;;;;;;;16.20;9.35;;;12.60;99.90;;;;;;5032736;28;20496;-77
2021/08/20 03:48:06;;;;;;;17.90;10.68;;;12.60;99.90;;;;;;5032846;28;20156;-77
2021/08/20 03:50:32;;;;;;;18.98;10.10;;;12.60;99.90;;;;;;5030992;28;20156;-77
2021/08/20 03:52:58;;;;;;;17.98;10.70;;;12.60;99.90;;;;;;5031097;28;20124;-77
2021/08/20 03:55:23;;;;;;;21.65;9.52;;;12.60;99.90;;;;;;5032411;28;20137;-81
2021/08/20 03:57:53;;;;;;;16.20;9.55;;;12.50;99.90;;;;;;5032790;28;20029;-77
2021/08/20 04:00:18;;;;;;;13.60;9.43;;;12.50;99.90;;;;;;5030806;28;20433;-77
2021/08/20 04:02:44;;;;;;;15.23;9.00;;;12.50;99.90;;;;;;5031257;28;20112;-77
2021/08/20 04:05:10;;;;;;;13.25;9.70;;;12.40;99.90;;;;;;5032252;28;20544;-77
2021/08/20 04:07:36;;;;;;;14.07;8.70;;;12.40;99.90;;;;;;5031021;28;20412;-77
2021/08/20 04:10:02;;;;;;;14.25;8.60;;;12.40;99.90;;;;;;5031141;28;20030;-77
2021/08/20 04:12:27;;;;;;;14.30;9.05;;;12.40;99.90;;;;;;5032142;28;20519;-77
2021/08/20 04:14:53;;;;;;;13.93;8.18;;;12.30;99.90;;;;;;5030388;28;20029;-77
2021/08/20 04:17:18;;;;;;;13.07;7.72;;;12.30;99.90;;;;;;5031954;28;20029;-77
2021/08/20 04:19:47;;;;;;;12.90;8.63;;;12.30;99.90;;;;;;5032216;28;20029;-81
2021/08/20 04:22:13;;;;;;;13.98;8.00;;;12.20;99.90;;;;;;5030627;28;20064;-82
2021/08/20 04:24:41;;;;;;;12.93;7.60;;;12.20;99.90;;;;;;5032169;28;20056;-77
2021/08/20 04:27:08;;;;;;;12.50;7.07;;;12.20;99.90;;;;;;5023302;28;20028;-77
2021/08/20 04:29:34;;;;;;;12.63;8.25;;;12.20;99.90;;;;;;5012078;28;20040;-77
2021/08/20 04:32:00;;;;;;;11.20;7.22;;;12.20;99.90;;;;;;5012658;28;20025;-77
2021/08/20 04:34:25;;;;;;;12.10;7.30;;;12.20;99.90;;;;;;5012152;28;20033;-77
2021/08/20 04:36:51;;;;;;;13.95;7.65;;;12.10;99.90;;;;;;5018548;28;20025;-77
2021/08/20 04:39:18;;;;;;;10.50;7.13;;;12.10;99.90;;;;;;5031901;28;20044;-77
2021/08/20 04:41:43;;;;;;;13.10;7.88;;;12.10;99.90;;;;;;5031422;28;20453;-77
2021/08/20 04:44:09;;;;;;;11.85;8.25;;;12.00;99.90;;;;;;5022686;28;20070;-81
2021/08/20 04:46:39;;;;;;;11.50;7.93;;;12.00;99.90;;;;;;5028204;28;20056;-77
2021/08/20 04:49:05;;;;;;;13.95;8.40;;;12.00;99.90;;;;;;5031243;28;20512;-77
2021/08/20 04:51:33;;;;;;;15.00;8.70;;;12.00;99.90;;;;;;5020574;28;20120;-77
2021/08/20 04:53:59;;;;;;;14.93;8.68;;;12.00;99.90;;;;;;5031831;28;20108;-77
2021/08/20 04:56:24;;;;;;;14.60;8.75;;;12.00;99.90;;;;;;5030710;28;20463;-77
2021/08/20 04:58:50;;;;;;;16.73;8.93;;;12.00;99.90;;;;;;5029980;28;20029;-77
2021/08/20 05:01:16;;;;;;;10.50;8.15;;;11.90;99.90;;;;;;5031208;28;20025;-77
2021/08/20 05:03:42;;;;;;;13.23;8.95;;;11.90;99.90;;;;;;5031310;28;20021;-77
2021/08/20 05:06:08;;;;;;;13.18;8.60;;;11.90;99.90;;;;;;5029583;28;20091;-78
2021/08/20 05:08:36;;;;;;;15.10;8.15;;;11.90;99.90;;;;;;5028515;28;20033;-81
2021/08/20 05:11:03;;;;;;;13.13;8.20;;;11.90;99.90;;;;;;5031440;28;20022;-81
2021/08/20 05:13:29;;;;;;;13.02;8.23;;;11.90;99.90;;;;;;5030889;28;20032;-77
2021/08/20 05:15:54;;;;;;;15.30;8.18;;;11.90;99.90;;;;;;5030166;28;20033;-81
2021/08/20 05:18:20;;;;;;;16.90;9.05;;;11.80;99.90;;;;;;5029491;28;20036;-77
2021/08/20 05:20:46;;;;;;;16.02;9.07;;;11.80;99.90;;;;;;5029931;28;20602;-77
2021/08/20 05:23:13;;;;;;;19.20;9.40;;;11.80;99.90;;;;;;5029672;28;20029;-77
2021/08/20 05:25:39;;;;;;;17.77;9.18;;;11.80;99.90;;;;;;5029018;28;20036;-77
2021/08/20 05:28:05;;;;;;;14.50;9.07;;;11.80;99.90;;;;;;5030777;28;20025;-79
2021/08/20 05:30:31;;;;;;;13.50;9.25;;;11.90;99.90;;;;;;5030748;28;20111;-77
2021/08/20 05:32:57;;;;;;;15.93;8.68;;;11.80;99.90;;;;;;5029336;28;20032;-77
2021/08/20 05:35:23;;;;;;;15.60;9.60;;;11.80;99.90;;;;;;5029251;28;20038;-77
2021/08/20 05:37:49;;;;;;;14.52;8.65;;;11.90;99.90;;;;;;5029700;28;20091;-77
2021/08/20 05:40:15;;;;;;;14.65;8.73;;;11.90;99.90;;;;;;5029928;28;20044;-81
2021/08/20 05:42:41;;;;;;;13.35;8.48;;;11.90;99.90;;;;;;5029165;28;20057;-77
2021/08/20 05:45:08;;;;;;;13.90;8.57;;;12.00;99.90;;;;;;5021079;28;20079;-77
2021/08/20 05:47:34;;;;;;;13.77;7.63;;;12.00;99.90;;;;;;5031874;28;20037;-77
2021/08/20 05:50:00;;;;;;;14.20;8.18;;;12.00;99.90;;;;;;5035734;28;20049;-77
2021/08/20 05:52:26;;;;;;;13.38;8.32;;;12.10;99.90;;;;;;5045275;28;20029;-78
2021/08/20 05:54:51;;;;;;;14.55;7.13;;;12.10;99.90;;;;;;5033594;28;20480;-81
2021/08/20 05:57:17;;;;;;;15.85;8.48;;;12.20;99.90;;;;;;5034178;28;20026;-77
2021/08/20 05:59:43;;;;;;;14.43;8.00;;;12.20;99.90;;;;;;5039289;28;20399;-77
2021/08/20 06:02:08;;;;;;;14.18;7.85;;;12.30;99.90;;;;;;5034613;28;20025;-77
2021/08/20 06:04:34;;;;;;;14.05;8.07;;;12.40;99.90;;;;;;5046823;28;20021;-77
2021/08/20 06:07:00;;;;;;;13.27;7.55;;;12.50;99.90;;;;;;5034000;28;20099;-81
2021/08/20 06:09:26;;;;;;;14.43;7.82;;;12.50;99.90;;;;;;5040433;28;20112;-81
2021/08/20 06:11:51;;;;;;;13.88;8.38;;;12.70;99.90;;;;;;5040637;28;20044;-77
2021/08/20 06:14:17;;;;;;;13.25;8.20;;;12.80;99.90;;;;;;5032955;28;20037;-77
2021/08/20 06:16:43;;;;;;;13.15;7.95;;;12.90;99.90;;;;;;5046197;28;20100;-81
2021/08/20 06:19:08;;;;;;;14.77;8.40;;;13.00;99.90;;;;;;5034469;28;20037;-77
2021/08/20 06:21:34;;;;;;;16.70;7.75;;;13.00;99.90;;;;;;5046576;28;20480;-77
2021/08/20 06:24:00;;;;;;;12.73;8.45;;;13.10;99.90;;;;;;5033387;28;20079;-77
2021/08/20 06:26:26;;;;;;;15.43;8.15;;;13.30;99.90;;;;;;5028396;28;20109;-78
2021/08/20 06:28:51;;;;;;;12.75;8.70;;;13.30;99.90;;;;;;5031611;28;20099;-81
2021/08/20 06:31:17;;;;;;;14.75;7.47;;;13.40;99.90;;;;;;5041850;28;20451;-78
2021/08/20 06:33:42;;;;;;;11.60;7.35;;;13.60;99.90;;;;;;5029836;28;20037;-81
2021/08/20 06:36:08;;;;;;;10.55;7.65;;;13.70;99.90;;;;;;5045859;28;20492;-77
2021/08/20 06:38:34;;;;;;;13.05;8.10;;;13.80;99.90;;;;;;5037727;28;20030;-78
2021/08/20 06:41:00;;;;;;;14.57;7.30;;;13.90;99.90;;;;;;5036294;28;20088;-77
2021/08/20 06:43:25;;;;;;;12.50;7.75;;;14.10;99.90;;;;;;5014616;28;20072;-79
2021/08/20 06:45:51;;;;;;;13.63;7.47;;;14.10;99.90;;;;;;5026803;28;20048;-76
2021/08/20 06:48:17;;;;;;;12.63;7.43;;;14.20;99.90;;;;;;5027497;28;20052;-79
2021/08/20 06:50:44;;;;;;;13.07;7.40;;;14.30;99.90;;;;;;5025682;28;20056;-76
2021/08/20 06:53:11;;;;;;;12.57;7.20;;;14.50;99.90;;;;;;5025009;28;20029;-76
2021/08/20 06:55:37;;;;;;;14.98;7.22;;;14.60;99.90;;;;;;5024657;28;20134;-80
2021/08/20 06:58:03;;;;;;;11.43;6.25;;;14.70;99.90;;;;;;5025615;28;20033;-76
2021/08/20 07:00:29;;;;;;;9.43;6.55;;;14.90;99.90;;;;;;5013893;28;20420;-77
2021/08/20 07:02:55;;;;;;;11.52;6.25;;;15.00;99.90;;;;;;5023440;28;20100;-79
2021/08/20 07:05:20;;;;;;;9.30;6.32;;;15.20;99.90;;;;;;5026460;28;20029;-79
2021/08/20 07:07:47;;;;;;;13.15;5.93;;;15.20;99.90;;;;;;5024007;28;20076;-76
2021/08/20 07:10:15;;;;;;;12.23;6.05;;;15.40;99.90;;;;;;5025254;28;20076;-75
2021/08/20 07:12:41;;;;;;;12.80;6.18;;;15.50;99.90;;;;;;5013168;28;20060;-77
2021/08/20 07:15:09;;;;;;;7.15;5.25;;;15.60;99.90;;;;;;5017708;28;20029;-77
2021/08/20 07:17:35;;;;;;;7.90;5.28;;;15.80;99.90;;;;;;5023549;28;20041;-80
2021/08/20 07:20:00;;;;;;;10.18;5.75;;;16.00;99.90;;;;;;5022719;28;20032;-80
2021/08/20 07:22:26;;;;;;;10.35;5.03;;;16.10;99.90;;;;;;5019582;28;20037;-81
2021/08/20 07:24:52;;;;;;;9.52;5.32;;;16.40;99.90;;;;;;5023280;28;20025;-78
2021/08/20 07:27:19;;;;;;;6.50;5.25;;;16.60;99.90;;;;;;5021791;28;20536;-79
2021/08/20 07:29:45;;;;;;;6.85;4.55;;;16.80;99.90;;;;;;5024626;28;20076;-77
2021/08/20 07:32:11;;;;;;;9.60;4.63;;;17.00;99.90;;;;;;5021142;28;20439;-77
2021/08/20 07:34:37;;;;;;;13.52;4.55;;;17.20;99.90;;;;;;5025630;28;20045;-79
2021/08/20 07:37:03;;;;;;;9.55;4.45;;;17.40;99.90;;;;;;5040192;28;20022;-83
2021/08/20 07:39:30;;;;;;;13.57;4.20;;;17.60;99.90;;;;;;5030466;28;20054;-80
2021/08/20 07:41:56;;;;;;;10.50;4.50;;;17.80;99.90;;;;;;5030527;28;20108;-81
2021/08/20 07:44:22;;;;;;;6.90;3.85;;;18.00;99.90;;;;;;5033859;28;20029;-79
2021/08/20 07:46:48;;;;;;;8.80;4.18;;;18.10;99.90;;;;;;5023684;28;20055;-78
2021/08/20 07:49:13;;;;;;;8.50;3.85;;;18.20;99.90;;;;;;5029318;28;20053;-78
2021/08/20 07:51:39;;;;;;;6.35;4.05;;;18.40;99.90;;;;;;5023284;28;20555;-80
2021/08/20 07:54:05;;;;;;;6.18;3.85;;;18.50;99.90;;;;;;5015197;28;20048;-81
2021/08/20 07:56:31;;;;;;;6.10;3.95;;;18.70;99.90;;;;;;5030666;28;20400;-80
2021/08/20 07:58:58;;;;;;;6.65;3.40;;;18.90;99.90;;;;;;5024890;28;20026;-79
2021/08/20 08:01:23;;;;;;;11.57;3.88;;;19.20;99.90;;;;;;5021871;28;20047;-81
2021/08/20 08:03:50;;;;;;;5.60;3.78;;;19.70;99.90;;;;;;5026741;28;20101;-79
2021/08/20 08:06:16;;;;;;;6.93;3.55;;;20.80;99.90;;;;;;5032913;28;20556;-80
2021/08/20 08:08:43;;;;;;;9.10;2.97;;;23.00;98.60;;;;;;5029161;28;20029;-78
2021/08/20 08:11:09;;;;;;;3.47;3.15;;;24.80;95.30;;;;;;5031582;28;20574;-83
2021/08/20 08:13:38;;;;;;;4.38;2.85;;;25.90;93.10;;;;;;5043664;28;20087;-79
2021/08/20 08:16:04;;;;;;;3.80;3.03;;;26.40;92.20;;;;;;5034097;28;20403;-82
2021/08/20 08:18:30;;;;;;;10.20;2.80;;;26.80;90.90;;;;;;5047592;28;20099;-79
2021/08/20 08:20:55;;;;;;;5.10;2.80;;;27.50;89.60;;;;;;5026300;28;20029;-81
2021/08/20 08:23:21;;;;;;;4.20;2.45;;;28.00;87.50;;;;;;5027078;28;20397;-80
2021/08/20 08:25:47;;;;;;;4.35;2.75;;;28.20;86.80;;;;;;5035607;28;20389;-82
2021/08/20 08:28:13;;;;;;;3.53;2.83;;;28.50;85.40;;;;;;5030583;28;20072;-85
2021/08/20 08:30:41;;;;;;;10.13;3.10;;;28.90;83.30;;;;;;5037490;28;20029;-81
2021/08/20 08:33:09;;;;;;;3.15;2.80;;;29.00;82.90;;;;;;5043217;28;20079;-82
2021/08/20 08:35:34;;;;;;;3.20;2.65;;;29.50;81.10;;;;;;5037835;28;20028;-82
2021/08/20 08:38:07;;;;;;;3.83;2.60;;;29.80;79.60;;;;;;5030427;28;20040;-82
2021/08/20 08:40:35;;;;;;;3.53;2.70;;;30.00;79.40;;;;;;5036638;28;20033;-80
2021/08/20 08:43:04;;;;;;;3.75;2.22;;;29.20;79.90;;;;;;5022961;28;20511;-81
2021/08/20 08:45:30;;;;;;;2.60;2.20;;;28.80;80.40;;;;;;5027375;28;20038;-80
2021/08/20 08:47:56;;;;;;;4.35;2.47;;;29.00;80.90;;;;;;5030889;28;20037;-82
2021/08/20 08:50:23;;;;;;;3.80;2.40;;;29.60;79.60;;;;;;5027709;28;20175;-80
2021/08/20 08:52:49;;;;;;;2.60;2.40;;;30.30;78.70;;;;;;5022242;28;20455;-81
2021/08/20 08:55:15;;;;;;;6.05;2.30;;;30.60;77.30;;;;;;5029928;28;20036;-80
2021/08/20 08:57:40;;;;;;;5.63;2.45;;;30.80;76.70;;;;;;5020534;28;20691;-81
2021/08/20 09:00:07;;;;;;;2.58;2.20;;;30.10;77.30;;;;;;5028360;28;20548;-79
2021/08/20 09:02:35;;;;;;;2.85;2.17;;;30.40;75.90;;;;;;5015451;28;20022;-81
2021/08/20 09:05:04;;;;;;;2.30;2.20;;;30.50;75.40;;;;;;5029104;28;20190;-80
2021/08/20 09:07:34;;;;;;;2.35;1.92;;;30.30;75.00;;;;;;5027368;28;20526;-80
2021/08/20 09:10:20;;;;;;;2.33;2.10;;;30.20;75.90;;;;;;5025136;28;20077;-81
2021/08/20 09:13:07;;;;;;;3.60;2.08;;;30.50;75.50;;;;;;5029827;28;20083;-80
2021/08/20 09:15:33;;;;;;;3.03;2.20;;;31.00;74.90;;;;;;5032448;28;20094;-80
2021/08/20 09:18:02;;;;;;;3.88;2.22;;;31.30;74.00;;;;;;5043187;28;20379;-84
2021/08/20 09:20:30;;;;;;;5.80;2.13;;;30.90;73.70;;;;;;5026233;28;20034;-79
2021/08/20 09:22:58;;;;;;;6.05;1.90;;;30.40;74.20;;;;;;5031580;28;20025;-80
2021/08/20 09:25:43;;;;;;;3.60;2.22;;;30.60;74.20;;;;;;5044107;28;20439;-85
2021/08/20 09:28:10;;;;;;;2.42;2.20;;;31.20;73.30;;;;;;5028588;28;20068;-80
2021/08/20 09:30:36;;;;;;;2.40;2.17;;;31.70;72.40;;;;;;5035229;28;20108;-81
2021/08/20 09:33:02;;;;;;;2.20;1.83;;;31.60;71.10;;;;;;5029861;28;20444;-86
2021/08/20 09:35:39;;;;;;;4.80;2.13;;;30.90;71.60;;;;;;5028377;28;20447;-81
2021/08/20 09:38:12;;;;;;;4.55;2.70;;;31.60;71.10;;;;;;5028686;28;20041;-84
2021/08/20 09:40:40;;;;;;;2.05;1.95;;;31.90;70.80;;;;;;5046717;28;20039;-83
2021/08/20 09:43:19;;;;;;;5.20;2.13;;;31.80;69.90;;;;;;5035180;28;20539;-82
2021/08/20 09:45:57;;;;;;;10.88;2.65;;;32.50;69.70;;;;;;5030030;28;20033;-86
2021/08/20 09:48:55;;;;;;;4.53;2.42;;;32.40;68.80;;;;;;5040567;28;20044;-81
2021/08/20 09:51:30;;;;;;;9.82;2.75;;;32.50;69.40;;;;;;5029266;28;20025;-82
2021/08/20 09:54:13;;;;;;;2.35;2.15;;;33.10;67.80;;;;;;5017952;28;20035;-80
2021/08/20 09:56:39;;;;;;;2.95;2.20;;;32.70;67.30;;;;;;5042651;28;20051;-82
2021/08/20 09:59:08;;;;;;;2.45;2.10;;;32.70;68.60;;;;;;5026061;28;20061;-83
2021/08/20 10:01:37;;;;;;;3.58;2.25;;;32.90;68.40;;;;;;5027429;28;20033;-81
2021/08/20 10:04:05;;;;;;;8.10;2.30;;;32.00;67.90;;;;;;5027557;28;20030;-83
2021/08/20 10:06:39;;;;;;;4.78;2.42;;;31.50;69.20;;;;;;5028237;28;20029;-81
2021/08/20 10:09:07;;;;;;;3.70;2.28;;;31.60;69.20;;;;;;5029296;28;20412;-81
2021/08/20 10:11:36;;;;;;;2.55;2.33;;;32.30;69.20;;;;;;5030717;28;20036;-82
2021/08/20 10:14:02;;;;;;;2.75;2.50;;;32.60;68.80;;;;;;5018241;28;20075;-81
2021/08/20 10:16:33;;;;;;;2.97;2.40;;;32.90;67.80;;;;;;5031915;28;20079;-81
2021/08/20 10:19:00;;;;;;;4.70;2.10;;;32.60;67.10;;;;;;5032284;28;20036;-82
2021/08/20 10:21:28;;;;;;;4.95;2.47;;;32.70;68.20;;;;;;5035010;28;20033;-80
2021/08/20 10:23:54;;;;;;;2.28;2.10;;;32.70;66.80;;;;;;5027512;28;20033;-80
2021/08/20 10:26:21;;;;;;;3.08;2.75;;;32.40;67.80;;;;;;5025679;28;20048;-82
2021/08/20 10:28:48;;;;;;;3.53;2.50;;;32.40;67.30;;;;;;5013622;28;20144;-81
2021/08/20 10:31:19;;;;;;;2.53;2.10;;;32.60;66.20;;;;;;5018178;28;20392;-80
2021/08/20 10:33:44;;;;;;;4.18;2.00;;;32.10;67.00;;;;;;5031206;28;20167;-81
2021/08/20 10:36:10;;;;;;;2.38;2.10;;;32.30;67.50;;;;;;5032884;28;20115;-82
2021/08/20 10:38:39;;;;;;;2.78;2.00;;;32.10;67.20;;;;;;5031837;28;20492;-82
2021/08/20 10:41:18;;;;;;;3.83;2.85;;;32.30;67.10;;;;;;5047446;28;20033;-82
2021/08/20 10:43:59;;;;;;;2.88;2.60;;;31.90;66.90;;;;;;5037410;28;20014;-80
2021/08/20 10:46:34;;;;;;;5.63;3.00;;;31.70;67.10;;;;;;5033158;28;20120;-81
2021/08/20 10:51:49;;;;;;;3.72;2.30;;;32.10;66.40;;;;;;5027384;28;20156;-81
2021/08/20 10:54:15;;;;;;;3.75;2.90;;;32.40;66.20;;;;;;5035249;28;20033;-81
2021/08/20 10:56:41;;;;;;;2.90;2.10;;;31.80;66.80;;;;;;5038040;28;20110;-79
2021/08/20 10:59:07;;;;;;;5.15;2.30;;;31.60;66.60;;;;;;5033537;28;20427;-81
2021/08/20 11:01:32;;;;;;;3.53;2.42;;;31.90;66.90;;;;;;5034151;28;20037;-79
2021/08/20 11:03:59;;;;;;;4.90;2.10;;;31.70;66.90;;;;;;5035133;28;20151;-82
2021/08/20 11:06:52;;;;;;;3.67;2.00;;;31.50;66.90;;;;;;5025367;28;20030;-80
2021/08/20 11:09:29;;;;;;;3.65;1.90;;;31.60;67.30;;;;;;5027505;28;20133;-79
2021/08/20 11:11:55;;;;;;;2.10;1.90;;;32.00;67.40;;;;;;5011149;28;20026;-80
2021/08/20 11:14:29;;;;;;;5.22;2.03;;;32.40;67.10;;;;;;5015777;28;20056;-78
2021/08/20 11:16:54;;;;;;;4.55;2.05;;;32.70;65.90;;;;;;5032509;28;20021;-79
2021/08/20 11:19:46;;;;;;;2.47;2.00;;;32.50;66.40;;;;;;5030870;28;20515;-80
2021/08/20 11:22:17;;;;;;;3.53;1.85;;;32.40;66.90;;;;;;5027819;28;20022;-81
2021/08/20 11:25:07;;;;;;;2.08;1.88;;;31.60;67.70;;;;;;5026221;28;20033;-81
2021/08/20 11:27:32;;;;;;;2.13;1.90;;;30.40;69.10;;;;;;5021855;28;20038;-81
2021/08/20 11:29:58;;;;;;;1.88;1.75;;;29.90;70.10;;;;;;5027548;28;20037;-80
2021/08/20 11:32:24;;;;;;;3.75;1.90;;;29.40;70.90;;;;;;5026969;28;20417;-80
2021/08/20 11:34:51;;;;;;;2.42;1.73;;;29.20;71.70;;;;;;5028918;28;20563;-81
2021/08/20 11:37:16;;;;;;;2.00;1.65;;;29.30;71.10;;;;;;5013788;28;20018;-80
2021/08/20 11:39:47;;;;;;;1.92;1.58;;;28.80;71.90;;;;;;5031292;28;20052;-81
2021/08/20 11:42:13;;;;;;;2.25;1.80;;;28.60;73.10;;;;;;5030363;28;20079;-81
2021/08/20 11:44:42;;;;;;;3.97;1.80;;;28.80;72.70;;;;;;5031922;28;20029;-80
2021/08/20 11:47:07;;;;;;;3.00;2.10;;;28.70;72.80;;;;;;5030867;28;20026;-80
2021/08/20 11:49:33;;;;;;;3.55;1.70;;;29.00;72.00;;;;;;5029972;28;20050;-80
2021/08/20 11:52:04;;;;;;;2.15;1.70;;;29.10;72.50;;;;;;5028334;28;20036;-80
2021/08/20 11:54:34;;;;;;;3.67;1.80;;;29.00;72.60;;;;;;5032856;28;20025;-79
2021/08/20 11:57:00;;;;;;;4.85;2.00;;;28.60;74.20;;;;;;5031903;28;20030;-79
2021/08/20 11:59:25;;;;;;;2.65;1.92;;;28.30;74.50;;;;;;5029778;28;20026;-81
2021/08/20 12:01:56;;;;;;;2.50;1.92;;;28.30;74.30;;;;;;5030019;28;20119;-79
2021/08/20 12:04:22;;;;;;;2.70;1.77;;;28.20;74.60;;;;;;5031250;28;20108;-79
2021/08/20 12:06:49;;;;;;;1.70;1.60;;;28.20;73.70;;;;;;5016854;28;20057;-81
2021/08/20 12:09:18;;;;;;;4.88;1.80;;;28.10;76.60;;;;;;5027541;28;20034;-79
2021/08/20 12:11:49;;;;;;;2.88;1.67;;;28.20;75.60;;;;;;5018677;28;20034;-81
2021/08/20 12:14:27;;;;;;;2.28;2.05;;;28.30;75.00;;;;;;5016076;28;20034;-79
2021/08/20 12:16:55;;;;;;;3.33;1.83;;;28.40;76.10;;;;;;5022607;28;20059;-81
2021/08/20 12:19:30;;;;;;;4.10;1.58;;;28.30;76.30;;;;;;5025303;28;20061;-79
2021/08/20 12:22:09;;;;;;;2.50;1.83;;;28.20;75.10;;;;;;5021290;28;20029;-79
2021/08/20 12:24:34;;;;;;;1.90;1.70;;;28.30;76.50;;;;;;5030726;28;20096;-80
2021/08/20 12:27:16;;;;;;;3.60;1.80;;;28.30;75.40;;;;;;5028685;28;20120;-78
2021/08/20 12:30:06;;;;;;;2.88;1.98;;;28.70;75.30;;;;;;5024886;28;20114;-79
2021/08/20 12:32:34;;;;;;;1.75;1.65;;;29.00;74.80;;;;;;5022604;28;20033;-80
2021/08/20 12:35:00;;;;;;;2.58;1.60;;;28.70;74.30;;;;;;5022658;28;20357;-80
2021/08/20 12:37:28;;;;;;;2.97;2.00;;;28.20;75.60;;;;;;5024461;28;20072;-78
2021/08/20 12:40:13;;;;;;;3.28;1.77;;;27.60;75.40;;;;;;5025784;28;20030;-79
2021/08/20 12:42:50;;;;;;;2.25;1.77;;;27.60;77.00;;;;;;5023908;28;20037;-78
2021/08/20 12:45:20;;;;;;;3.85;1.90;;;27.80;77.30;;;;;;5024871;28;20029;-79